Terminal Aerodrome Forecast
Issued by NWS Tampa Bay Area, FL

Home | Current Version | Previous Version | Text Only | Print | Product List | Glossary On
Versions: 1 2 3 4 5 6 7 8 9 10 11 12 13 14 15 16 17 18
043
FTUS42 KTBW 270527
TAFFMY
TAF
KFMY 270527Z 2706/2806 05006KT P6SM SCT030 BKN050 OVC100
     FM271500 08010G15KT P6SM VCTS SCT030CB OVC050
     FM280100 06008KT P6SM VCSH SCT025 BKN040 OVC100=

USA.gov is the U.S. government's official web portal to all federal, state and local government web resources and services.